Time;durP1;ratioP1;P1;durP2;ratioP2;P2;SDS_P1;SDS_P2;PMS_P1;PMS_P2;Temp;Humidity;BMP_temperature;BMP_pressure;BME280_temperature;BME280_humidity;BME280_pressure;Samples;Min_cycle;Max_cycle;Signal;HPM_P1;HPM_P2
2022/03/31 00:00:48;;;;;;;12.93;3.85;;;;;;;15.89;41.10;93811.47;5071090;28;20175;-82
2022/03/31 00:03:16;;;;;;;15.40;4.05;;;;;;;15.95;40.51;93807.72;5053378;28;20684;-83
2022/03/31 00:05:42;;;;;;;13.30;4.38;;;;;;;15.59;40.23;93756.59;5071488;28;20166;-83
2022/03/31 00:08:15;;;;;;;14.82;3.97;;;;;;;15.89;40.31;93797.41;5075281;28;20166;-83
2022/03/31 00:10:44;;;;;;;12.80;3.88;;;;;;;15.72;40.94;93814.41;5075849;28;20186;-83
2022/03/31 00:13:15;;;;;;;19.58;4.63;;;;;;;15.70;41.10;93792.66;5075902;28;20172;-83
2022/03/31 00:15:42;;;;;;;16.30;4.38;;;;;;;15.60;40.84;93808.59;5076052;28;20259;-82
2022/03/31 00:18:08;;;;;;;14.07;4.03;;;;;;;15.56;41.19;93818.16;5076063;28;20243;-82
2022/03/31 00:34:28;;;;;;;13.70;5.18;;;;;;;15.44;42.24;93799.81;5072428;28;20610;-82
2022/03/31 00:36:54;;;;;;;20.25;6.15;;;;;;;15.34;42.51;93777.81;5073148;28;20267;-82
2022/03/31 00:39:29;;;;;;;14.60;4.38;;;;;;;15.13;42.26;93750.53;5074694;28;21013;-82
2022/03/31 00:41:55;;;;;;;17.50;4.38;;;;;;;15.49;42.31;93757.38;5075048;28;20542;-82
2022/03/31 00:44:22;;;;;;;14.95;4.25;;;;;;;15.49;42.39;93767.19;5074939;28;20197;-82
2022/03/31 00:46:49;;;;;;;9.00;3.97;;;;;;;15.05;42.62;93714.72;5075242;28;20174;-84
2022/03/31 00:49:16;;;;;;;11.98;4.95;;;;;;;15.22;42.75;93725.06;5056720;28;20170;-83
2022/03/31 00:51:42;;;;;;;17.05;4.80;;;;;;;14.90;42.78;93706.78;5071718;28;20175;-83
2022/03/31 00:54:07;;;;;;;14.55;5.13;;;;;;;15.00;42.87;93728.00;5074546;28;20174;-84
2022/03/31 00:56:33;;;;;;;16.58;3.97;;;;;;;14.86;43.42;93707.59;5074177;28;20245;-84
2022/03/31 00:58:59;;;;;;;13.98;4.13;;;;;;;15.28;43.02;93741.78;5056130;28;20213;-84
2022/03/31 01:01:26;;;;;;;10.65;3.53;;;;;;;15.40;43.06;93745.72;5073853;28;20182;-83
2022/03/31 01:03:51;;;;;;;15.00;5.47;;;;;;;15.35;42.77;93713.13;5074124;28;20170;-82
2022/03/31 01:06:17;;;;;;;18.35;4.25;;;;;;;15.38;43.03;93723.19;5074143;28;20276;-82
2022/03/31 01:08:43;;;;;;;17.17;3.65;;;;;;;15.34;42.99;93712.31;5074268;28;20162;-82
2022/03/31 01:11:08;;;;;;;16.20;3.45;;;;;;;15.77;43.25;93776.44;5074516;28;20573;-82
2022/03/31 01:13:34;;;;;;;14.70;3.92;;;;;;;15.26;43.47;93680.25;5074792;28;20159;-82
2022/03/31 01:16:00;;;;;;;22.25;3.45;;;;;;;15.65;42.64;93720.25;5074660;28;20185;-82
2022/03/31 01:18:26;;;;;;;15.75;4.22;;;;;;;15.89;42.48;93739.00;5055234;28;20671;-82
2022/03/31 01:20:52;;;;;;;19.45;4.15;;;;;;;15.73;42.96;93715.19;5074302;28;20151;-82
2022/03/31 01:23:18;;;;;;;11.70;3.30;;;;;;;15.66;43.10;93680.16;5074231;28;20193;-82
2022/03/31 01:25:44;;;;;;;16.10;4.38;;;;;;;15.84;43.45;93715.91;5074230;28;20202;-82
2022/03/31 01:28:10;;;;;;;22.63;3.80;;;;;;;15.72;43.35;93712.78;5074739;28;20244;-82
2022/03/31 01:30:35;;;;;;;15.55;4.10;;;;;;;16.04;43.37;93768.94;5074350;28;20179;-81
2022/03/31 01:33:01;;;;;;;20.98;3.97;;;;;;;15.95;43.71;93745.88;5056070;28;20184;-83
2022/03/31 01:35:27;;;;;;;17.27;3.70;;;;;;;15.80;43.64;93728.16;5074048;28;20243;-82
2022/03/31 01:37:53;;;;;;;15.20;3.25;;;;;;;16.10;43.31;93773.16;5073534;28;20565;-83
2022/03/31 01:40:19;;;;;;;19.40;3.85;;;;;;;16.14;42.81;93762.81;5073748;28;20170;-83
2022/03/31 01:42:46;;;;;;;15.02;3.22;;;;;;;15.96;43.33;93737.66;5073843;28;20171;-83
2022/03/31 01:45:14;;;;;;;12.35;3.63;;;;;;;15.94;42.93;93745.09;5073568;28;20174;-83
2022/03/31 01:47:40;;;;;;;13.18;3.33;;;;;;;15.81;43.97;93738.50;5073719;28;20181;-83
2022/03/31 01:50:09;;;;;;;17.42;4.18;;;;;;;15.53;43.65;93723.16;5072909;28;20681;-82
2022/03/31 01:52:35;;;;;;;13.80;4.22;;;;;;;15.65;43.84;93749.44;5073480;28;20177;-82
2022/03/31 01:55:01;;;;;;;21.98;6.60;;;;;;;15.13;43.51;93649.81;5073518;28;20206;-83
2022/03/31 01:57:26;;;;;;;16.13;4.82;;;;;;;15.62;43.56;93740.16;5073703;28;20209;-82
2022/03/31 01:59:52;;;;;;;16.35;4.15;;;;;;;15.30;43.88;93690.06;5055605;28;20232;-82
2022/03/31 02:02:17;;;;;;;24.55;5.50;;;;;;;15.53;43.95;93760.28;5073749;28;21094;-82
2022/03/31 02:04:43;;;;;;;18.13;5.93;;;;;;;15.42;44.26;93737.50;5073424;28;20176;-82
2022/03/31 02:07:09;;;;;;;17.33;5.03;;;;;;;15.46;44.21;93759.78;5054969;28;20587;-82
2022/03/31 02:09:35;;;;;;;23.10;4.35;;;;;;;15.33;43.88;93745.19;5073086;28;20178;-81
2022/03/31 02:12:02;;;;;;;18.97;4.87;;;;;;;15.26;43.99;93765.91;5054912;28;20174;-82
2022/03/31 02:14:28;;;;;;;15.85;3.58;;;;;;;15.15;44.50;93753.69;5073149;28;20225;-82
2022/03/31 02:16:55;;;;;;;19.92;4.00;;;;;;;14.92;44.74;93727.72;5073567;28;20269;-82
2022/03/31 02:19:21;;;;;;;12.90;4.83;;;;;;;15.10;44.64;93751.06;5073131;28;20174;-82
2022/03/31 02:21:47;;;;;;;21.58;4.60;;;;;;;15.13;44.23;93726.69;5073294;28;20158;-82
2022/03/31 02:24:14;;;;;;;15.53;5.40;;;;;;;15.08;44.42;93729.31;5072770;28;20179;-82
2022/03/31 02:26:41;;;;;;;13.45;4.43;;;;;;;14.87;44.23;93702.03;5073003;28;20292;-82
2022/03/31 02:29:07;;;;;;;14.60;4.07;;;;;;;14.97;44.63;93687.97;5054967;28;20174;-82
2022/03/31 02:31:33;;;;;;;10.47;3.63;;;;;;;15.07;44.21;93719.78;5073106;28;20195;-82
2022/03/31 02:33:59;;;;;;;14.63;4.50;;;;;;;14.91;44.64;93731.44;5072889;28;20181;-82
2022/03/31 02:36:26;;;;;;;16.50;4.95;;;;;;;14.95;44.70;93729.88;5054791;28;20222;-82
2022/03/31 02:38:52;;;;;;;13.20;3.70;;;;;;;15.05;44.45;93737.78;5054287;28;20208;-82
2022/03/31 02:41:17;;;;;;;12.60;3.83;;;;;;;14.73;44.18;93691.16;5054174;28;20256;-82
2022/03/31 02:43:43;;;;;;;10.30;4.45;;;;;;;15.01;44.17;93716.34;5071822;28;20170;-82
2022/03/31 02:46:08;;;;;;;18.65;4.60;;;;;;;15.04;44.63;93736.22;5072149;28;20541;-82
2022/03/31 02:48:35;;;;;;;20.17;4.70;;;;;;;14.62;44.69;93665.72;5071769;28;20280;-82
2022/03/31 02:51:01;;;;;;;16.45;5.00;;;;;;;14.95;44.97;93737.81;5071742;28;20186;-83
2022/03/31 02:56:10;;;;;;;12.95;4.55;;;;;;;14.80;45.11;93692.75;5072749;28;20213;-84
2022/03/31 02:58:36;;;;;;;14.55;4.95;;;;;;;14.59;45.08;93678.72;5073084;28;20241;-84
2022/03/31 03:01:01;;;;;;;16.98;4.43;;;;;;;14.67;45.19;93694.09;5072034;28;20565;-84
2022/03/31 03:03:28;;;;;;;16.77;4.35;;;;;;;14.41;44.88;93642.16;5071596;28;20666;-84
2022/03/31 03:05:54;;;;;;;17.00;4.78;;;;;;;14.71;44.83;93722.41;5071959;28;20740;-84
2022/03/31 03:08:19;;;;;;;14.20;3.70;;;;;;;14.27;45.32;93652.47;5071950;28;20206;-84
2022/03/31 03:10:45;;;;;;;11.10;4.53;;;;;;;14.32;44.89;93670.97;5054042;28;20204;-84
2022/03/31 03:13:11;;;;;;;10.77;3.67;;;;;;;14.50;45.43;93712.06;5072170;28;20166;-84
2022/03/31 03:15:37;;;;;;;14.93;4.27;;;;;;;14.19;45.26;93650.31;5072545;28;20630;-85
2022/03/31 03:18:03;;;;;;;15.73;4.10;;;;;;;14.11;45.57;93656.91;5072174;28;20737;-84
2022/03/31 03:20:28;;;;;;;16.40;3.90;;;;;;;14.63;45.09;93733.53;5054203;28;20265;-83
2022/03/31 03:22:54;;;;;;;16.47;4.37;;;;;;;14.61;45.51;93733.03;5053976;28;20170;-83
2022/03/31 03:25:22;;;;;;;19.50;5.40;;;;;;;14.50;45.68;93734.06;5066486;28;20173;-84
2022/03/31 03:27:49;;;;;;;10.50;5.73;;;;;;;14.47;46.11;93731.94;5071468;28;20590;-83
2022/03/31 03:30:18;;;;;;;11.40;4.43;;;;;;;14.02;46.11;93661.13;5070975;28;20281;-83
2022/03/31 03:32:43;;;;;;;22.50;4.50;;;;;;;14.41;46.12;93730.34;5053514;28;20223;-84
2022/03/31 03:35:11;;;;;;;13.90;4.57;;;;;;;14.44;45.91;93716.59;5071486;28;20213;-84
2022/03/31 03:37:37;;;;;;;14.57;4.17;;;;;;;14.14;45.73;93658.25;5053602;28;20178;-84
2022/03/31 03:40:06;;;;;;;15.80;5.07;;;;;;;14.46;45.87;93700.41;5071855;28;20170;-83
2022/03/31 03:42:32;;;;;;;12.43;4.40;;;;;;;14.07;45.80;93645.28;5053188;28;20668;-84
2022/03/31 03:44:58;;;;;;;10.27;3.63;;;;;;;14.43;45.88;93701.75;5072176;28;20155;-84
2022/03/31 03:47:24;;;;;;;12.33;4.30;;;;;;;13.86;46.49;93660.28;5053851;28;20544;-84
2022/03/31 03:49:50;;;;;;;12.30;4.43;;;;;;;14.16;46.75;93677.31;5053854;28;20190;-84
2022/03/31 03:52:17;;;;;;;12.93;4.20;;;;;;;13.76;46.76;93617.13;5053707;28;20257;-84
2022/03/31 03:54:42;;;;;;;9.93;4.17;;;;;;;13.57;47.12;93640.63;5071748;28;20170;-84
2022/03/31 03:57:08;;;;;;;11.63;4.50;;;;;;;13.91;47.14;93691.28;5072052;28;20165;-83
2022/03/31 03:59:33;;;;;;;8.03;4.87;;;;;;;13.96;46.94;93697.38;5071678;28;20561;-83
2022/03/31 04:01:59;;;;;;;12.53;4.63;;;;;;;14.02;47.13;93700.81;5071643;28;20163;-83
2022/03/31 04:04:31;;;;;;;14.93;4.33;;;;;;;13.68;46.92;93649.38;5071688;28;20645;-84
2022/03/31 04:06:57;;;;;;;17.47;4.53;;;;;;;13.83;46.82;93687.28;5053615;28;20170;-84
2022/03/31 04:09:23;;;;;;;18.30;4.87;;;;;;;13.93;47.40;93710.31;5071446;28;20176;-84
2022/03/31 04:11:49;;;;;;;17.57;4.50;;;;;;;13.64;47.48;93641.19;5053172;28;20578;-83
2022/03/31 04:14:15;;;;;;;15.60;4.53;;;;;;;14.00;47.34;93710.09;5053601;28;20185;-84
2022/03/31 04:16:41;;;;;;;14.97;4.47;;;;;;;13.40;47.58;93653.25;5053348;28;20257;-84
2022/03/31 04:19:09;;;;;;;15.37;5.03;;;;;;;13.74;48.43;93725.06;5071129;28;20552;-84
2022/03/31 04:21:36;;;;;;;15.23;3.90;;;;;;;13.41;48.07;93687.34;5053036;28;20205;-84
2022/03/31 04:24:02;;;;;;;22.53;4.57;;;;;;;13.61;48.26;93734.25;5071776;28;20527;-84
2022/03/31 04:26:28;;;;;;;18.10;5.13;;;;;;;13.66;48.37;93725.56;5071500;28;20288;-84
2022/03/31 04:28:53;;;;;;;9.53;4.30;;;;;;;13.67;48.64;93721.84;5053397;28;20634;-84
2022/03/31 04:31:19;;;;;;;20.83;4.83;;;;;;;13.29;47.93;93656.91;5053426;28;20195;-85
2022/03/31 04:33:44;;;;;;;13.83;4.90;;;;;;;13.63;48.04;93720.78;5053366;28;20205;-85
2022/03/31 04:36:10;;;;;;;17.80;4.63;;;;;;;13.68;48.35;93739.28;5053342;28;20226;-85
2022/03/31 04:38:36;;;;;;;20.80;5.83;;;;;;;13.27;48.37;93680.13;5053463;28;20159;-85
2022/03/31 04:41:01;;;;;;;16.17;4.80;;;;;;;13.10;48.43;93673.13;5071493;28;20202;-85
2022/03/31 04:43:27;;;;;;;14.97;4.90;;;;;;;13.17;49.11;93686.16;5053298;28;20646;-85
2022/03/31 04:45:53;;;;;;;11.83;4.27;;;;;;;13.47;48.83;93706.69;5071517;28;20240;-85
2022/03/31 04:48:18;;;;;;;18.20;5.47;;;;;;;13.23;49.29;93660.56;5071148;28;20171;-85
2022/03/31 04:50:44;;;;;;;19.57;4.60;;;;;;;13.31;49.41;93684.66;5053186;28;20699;-83
2022/03/31 04:53:11;;;;;;;22.37;6.33;;;;;;;13.79;49.85;93725.88;5072876;28;20162;-83
2022/03/31 04:55:37;;;;;;;12.53;4.93;;;;;;;13.56;48.74;93705.94;5074686;28;20162;-84
2022/03/31 04:58:03;;;;;;;24.50;5.87;;;;;;;13.77;49.36;93740.41;5075040;28;20154;-84
2022/03/31 05:00:29;;;;;;;18.23;5.07;;;;;;;13.69;49.27;93733.75;5074721;28;20162;-84
2022/03/31 05:02:55;;;;;;;9.50;4.43;;;;;;;13.47;49.07;93707.47;5056640;28;20178;-82
2022/03/31 05:05:21;;;;;;;18.17;5.37;;;;;;;13.35;49.71;93661.16;5073987;28;20577;-83
2022/03/31 05:07:46;;;;;;;18.27;5.53;;;;;;;13.55;49.45;93663.91;5073669;28;20309;-82
2022/03/31 05:10:12;;;;;;;12.40;4.53;;;;;;;13.42;50.30;93656.41;5073596;28;20269;-82
2022/03/31 05:12:37;;;;;;;20.13;5.47;;;;;;;13.10;50.26;93635.34;5073815;28;20163;-82
2022/03/31 05:15:03;;;;;;;17.73;6.30;;;;;;;13.29;50.40;93646.31;5074037;28;20685;-82
2022/03/31 05:17:34;;;;;;;15.07;4.23;;;;;;;13.37;50.69;93665.13;5072393;28;20205;-83
2022/03/31 05:20:03;;;;;;;15.77;5.57;;;;;;;13.45;51.06;93720.16;5073810;28;20241;-82
2022/03/31 05:22:30;;;;;;;18.80;4.97;;;;;;;13.42;51.19;93735.72;5073734;28;20245;-82
2022/03/31 05:24:55;;;;;;;17.53;4.40;;;;;;;13.26;51.14;93715.53;5055765;28;20166;-81
2022/03/31 05:27:21;;;;;;;20.83;4.93;;;;;;;13.29;51.63;93701.81;5073033;28;20228;-81
2022/03/31 05:29:46;;;;;;;14.90;6.03;;;;;;;13.23;52.75;93709.69;5055439;28;20198;-81
2022/03/31 05:32:12;;;;;;;10.47;4.43;;;;;;;13.56;52.51;93765.97;5073599;28;20169;-82
2022/03/31 05:34:37;;;;;;;20.23;5.57;;;;;;;13.17;52.39;93723.16;5072999;28;20242;-82
2022/03/31 05:37:05;;;;;;;16.97;5.37;;;;;;;13.61;53.55;93758.03;5072774;28;20676;-82
2022/03/31 05:39:32;;;;;;;21.53;5.23;;;;;;;13.70;53.43;93769.72;5073363;28;20171;-82
2022/03/31 05:41:57;;;;;;;16.93;5.90;;;;;;;13.77;51.85;93772.94;5054945;28;20875;-82
2022/03/31 05:44:23;;;;;;;13.37;5.77;;;;;;;13.85;52.14;93766.34;5073379;28;20167;-82
2022/03/31 05:46:49;;;;;;;17.20;5.57;;;;;;;13.55;52.43;93706.19;5073212;28;20194;-81
2022/03/31 05:49:15;;;;;;;10.27;4.97;;;;;;;13.40;50.75;93691.06;5072945;28;20273;-82
2022/03/31 05:51:41;;;;;;;18.57;5.73;;;;;;;13.91;51.82;93760.06;5072754;28;20237;-82
2022/03/31 05:54:06;;;;;;;19.00;5.23;;;;;;;13.96;53.00;93757.41;5072596;28;20174;-82
2022/03/31 05:56:32;;;;;;;26.57;5.67;;;;;;;13.96;52.40;93731.75;5073086;28;20637;-82
2022/03/31 05:58:58;;;;;;;19.70;5.27;;;;;;;13.54;52.26;93673.66;5055027;28;20634;-82
2022/03/31 06:01:23;;;;;;;25.00;5.30;;;;;;;13.77;53.02;93695.44;5072921;28;20196;-82
2022/03/31 06:03:49;;;;;;;21.63;4.63;;;;;;;13.70;53.56;93666.59;5072146;28;20175;-82
2022/03/31 06:06:14;;;;;;;27.97;5.37;;;;;;;14.12;53.50;93708.00;5072589;28;20189;-79
2022/03/31 06:08:40;;;;;;;15.50;4.93;;;;;;;14.17;53.80;93694.78;5072746;28;20250;-81
2022/03/31 06:11:05;;;;;;;27.97;4.90;;;;;;;14.30;54.50;93702.22;5071494;28;20198;-80
2022/03/31 06:13:31;;;;;;;25.43;6.13;;;;;;;14.36;55.16;93677.31;5072773;28;20661;-81
2022/03/31 06:15:56;;;;;;;22.53;4.57;;;;;;;14.48;55.25;93672.63;5054955;28;20231;-81
2022/03/31 06:18:23;;;;;;;23.40;6.03;;;;;;;14.36;56.05;93649.00;5072777;28;20163;-80
2022/03/31 06:20:49;;;;;;;18.37;6.90;;;;;;;14.45;56.21;93667.84;5072830;28;20633;-81
2022/03/31 06:23:14;;;;;;;29.27;9.60;;;;;;;14.31;56.49;93653.50;5072811;28;20251;-79
2022/03/31 06:25:42;;;;;;;24.13;8.20;;;;;;;14.48;56.21;93685.84;5072656;28;20179;-80
2022/03/31 06:28:09;;;;;;;28.85;10.98;;;;;;;14.66;56.10;93719.78;5072627;28;20166;-82
2022/03/31 06:30:34;;;;;;;29.47;8.13;;;;;;;14.55;57.00;93727.97;5071283;28;20568;-80
2022/03/31 06:33:00;;;;;;;24.80;10.53;;;;;;;14.61;56.43;93740.19;5069812;28;20182;-82
2022/03/31 06:35:26;;;;;;;23.53;9.73;;;;;;;14.37;56.36;93700.09;5071818;28;20225;-84
2022/03/31 06:37:51;;;;;;;27.25;8.30;;;;;;;14.59;55.67;93732.50;5072293;28;20170;-82
2022/03/31 06:40:17;;;;;;;20.53;7.00;;;;;;;14.49;54.37;93735.13;5072193;28;20225;-82
2022/03/31 06:42:44;;;;;;;29.13;5.93;;;;;;;14.84;54.04;93782.06;5072584;28;20194;-86
2022/03/31 06:45:15;;;;;;;16.60;5.33;;;;;;;14.27;53.38;93661.16;5054102;28;20174;-83
2022/03/31 06:47:44;;;;;;;29.30;6.83;;;;;;;14.11;54.29;93709.03;5072022;28;20170;-83
2022/03/31 06:50:11;;;;;;;23.40;6.07;;;;;;;14.13;56.47;93755.38;5072114;28;20194;-82
2022/03/31 06:52:37;;;;;;;20.10;6.33;;;;;;;13.84;56.90;93696.78;5071302;28;20170;-81
2022/03/31 06:55:03;;;;;;;29.87;7.40;;;;;;;14.28;56.63;93736.88;5071641;28;20174;-83
2022/03/31 06:57:29;;;;;;;23.23;6.37;;;;;;;14.35;55.70;93723.41;5071432;28;20193;-82
2022/03/31 06:59:54;;;;;;;21.10;6.17;;;;;;;14.58;55.58;93725.59;5071827;28;20171;-82
2022/03/31 07:02:20;;;;;;;30.07;6.47;;;;;;;14.73;55.60;93738.84;5071671;28;20178;-82
2022/03/31 07:04:45;;;;;;;21.10;5.97;;;;;;;14.43;56.19;93699.09;5071682;28;20703;-81
2022/03/31 07:07:11;;;;;;;16.50;7.03;;;;;;;14.74;56.25;93731.69;5071575;28;20181;-82
2022/03/31 07:09:37;;;;;;;18.80;5.97;;;;;;;14.80;56.13;93724.53;5053243;28;20178;-83
2022/03/31 07:12:02;;;;;;;24.38;6.90;;;;;;;14.22;56.11;93637.34;5068138;28;20182;-85
2022/03/31 07:14:31;;;;;;;26.60;6.80;;;;;;;14.35;56.70;93686.34;5053022;28;20185;-85
2022/03/31 07:16:57;;;;;;;26.73;11.03;;;;;;;14.72;56.77;93717.91;5068926;28;20174;-82
2022/03/31 07:19:23;;;;;;;1999.90;999.90;;;;;;;14.36;58.22;93666.72;5069919;28;20239;-86
2022/03/31 07:21:50;;;;;;;1999.90;999.90;;;;;;;14.63;57.72;93720.28;5071300;28;20166;-83
2022/03/31 07:24:15;;;;;;;1999.90;999.90;;;;;;;14.23;57.25;93635.50;5071542;28;20538;-83
2022/03/31 07:26:41;;;;;;;976.70;467.00;;;;;;;14.47;57.89;93665.72;5071520;28;20249;-84
2022/03/31 07:29:06;;;;;;;1999.90;999.90;;;;;;;14.37;57.34;93636.56;5053754;28;20163;-83
2022/03/31 07:31:32;;;;;;;1999.90;999.90;;;;;;;14.45;57.82;93657.25;5071024;28;20197;-82
2022/03/31 07:33:57;;;;;;;1999.90;999.90;;;;;;;14.66;57.27;93668.66;5052942;28;20186;-81
2022/03/31 07:36:23;;;;;;;1999.90;999.90;;;;;;;15.14;56.10;93735.41;5071167;28;20292;-82
2022/03/31 07:38:49;;;;;;;1999.90;999.90;;;;;;;15.11;56.25;93678.44;5071388;28;20245;-83
2022/03/31 07:41:15;;;;;;;582.00;207.07;;;;;;;15.38;55.51;93731.16;5071098;28;20240;-83
2022/03/31 07:43:42;;;;;;;1999.90;999.90;;;;;;;15.19;55.70;93685.84;5051775;28;20205;-84
2022/03/31 07:46:07;;;;;;;1999.90;999.90;;;;;;;15.39;55.40;93717.59;5071049;28;20245;-83
2022/03/31 07:48:33;;;;;;;1999.90;999.90;;;;;;;15.29;56.17;93707.03;5071272;28;20250;-83
2022/03/31 07:50:59;;;;;;;1999.90;999.90;;;;;;;15.03;56.05;93639.22;5071047;28;20263;-85
2022/03/31 07:53:32;;;;;;;1999.90;999.90;;;;;;;15.42;55.58;93698.50;5071229;28;20162;-83
2022/03/31 07:56:00;;;;;;;1999.90;999.90;;;;;;;15.75;55.04;93731.59;5071402;28;20166;-83
2022/03/31 07:58:25;;;;;;;1999.90;999.90;;;;;;;15.32;55.44;93661.41;5071131;28;20197;-83
2022/03/31 08:00:52;;;;;;;1999.90;999.90;;;;;;;15.43;54.81;93664.84;5070842;28;20193;-83
2022/03/31 08:03:22;;;;;;;1999.90;999.90;;;;;;;15.64;55.93;93723.97;5070917;28;20174;-84
2022/03/31 08:05:48;;;;;;;1999.90;999.90;;;;;;;15.45;55.77;93660.84;5053337;28;20170;-84
2022/03/31 08:08:14;;;;;;;1999.90;999.90;;;;;;;15.86;54.55;93716.44;5052950;28;20166;-81
2022/03/31 08:10:40;;;;;;;1999.90;999.90;;;;;;;15.93;54.53;93697.56;5070818;28;20577;-83
2022/03/31 08:13:06;;;;;;;1999.90;999.90;;;;;;;16.02;54.90;93694.09;5052866;28;20257;-87
2022/03/31 08:15:31;;;;;;;1940.90;858.45;;;;;;;16.19;54.55;93696.38;5053213;28;20210;-85
2022/03/31 08:17:58;;;;;;;410.13;374.95;;;;;;;15.78;53.98;93672.69;5070888;28;20178;-86
2022/03/31 08:20:25;;;;;;;482.13;394.02;;;;;;;16.29;53.40;93691.03;5070940;28;20255;-86
2022/03/31 08:22:51;;;;;;;20.33;8.27;;;;;;;15.91;53.17;93644.78;5070666;28;20574;-84
2022/03/31 08:25:17;;;;;;;204.25;187.05;;;;;;;16.28;53.61;93696.59;5052145;28;20182;-84
2022/03/31 08:27:44;;;;;;;27.65;7.10;;;;;;;16.42;52.97;93697.59;5070591;28;20540;-84
2022/03/31 08:30:16;;;;;;;29.48;5.47;;;;;;;16.60;51.61;93675.69;5074327;28;20206;-83
2022/03/31 08:32:43;;;;;;;29.08;6.45;;;;;;;16.74;49.94;93673.22;5074920;28;20228;-84
2022/03/31 08:35:10;;;;;;;27.90;6.65;;;;;;;16.77;49.88;93651.41;5074307;28;20659;-84
2022/03/31 08:37:37;;;;;;;26.27;5.63;;;;;;;16.97;50.76;93667.97;5074917;28;20167;-82
2022/03/31 08:40:04;;;;;;;29.90;6.18;;;;;;;16.98;50.16;93661.59;5074333;28;20166;-82
2022/03/31 08:42:30;;;;;;;21.48;6.05;;;;;;;17.12;50.06;93645.78;5074307;28;20181;-83
2022/03/31 08:44:57;;;;;;;18.25;4.93;;;;;;;17.24;48.25;93643.53;5074367;28;20170;-83
2022/03/31 08:47:25;;;;;;;24.33;5.50;;;;;;;17.29;48.65;93642.69;5074305;28;20178;-82
2022/03/31 08:49:50;;;;;;;18.27;5.55;;;;;;;17.50;48.48;93648.56;5056288;28;20166;-82
2022/03/31 08:52:16;;;;;;;20.75;4.70;;;;;;;17.26;47.40;93606.00;5074133;28;20231;-84
2022/03/31 08:54:42;;;;;;;17.83;4.82;;;;;;;17.48;47.36;93662.16;5056526;28;20166;-86
2022/03/31 08:57:08;;;;;;;44.75;6.68;;;;;;;17.33;47.04;93636.50;5074280;28;20547;-86
2022/03/31 08:59:33;;;;;;;23.73;6.20;;;;;;;17.73;47.82;93639.81;5074173;28;20178;-82
2022/03/31 09:02:00;;;;;;;27.02;5.55;;;;;;;17.97;46.48;93669.09;5072464;28;20174;-85
2022/03/31 09:04:25;;;;;;;27.92;6.15;;;;;;;17.81;47.71;93617.91;5073801;28;20626;-86
2022/03/31 09:07:02;;;;;;;34.53;6.70;;;;;;;17.95;47.17;93628.63;5073855;28;20661;-86
2022/03/31 09:09:28;;;;;;;17.42;5.10;;;;;;;18.34;47.72;93671.78;5072087;28;20169;-86
2022/03/31 09:11:53;;;;;;;22.50;5.75;;;;;;;18.46;46.52;93640.16;5070709;28;20273;-87
2022/03/31 09:14:28;;;;;;;41.08;5.72;;;;;;;18.57;46.55;93646.16;5054652;28;20757;-86
2022/03/31 09:16:54;;;;;;;24.70;5.15;;;;;;;18.17;45.20;93609.41;5073484;28;20663;-88
2022/03/31 09:19:20;;;;;;;23.50;6.20;;;;;;;18.61;45.79;93657.03;5074014;28;20167;-88
2022/03/31 09:22:00;;;;;;;29.38;4.95;;;;;;;18.73;44.93;93650.19;5075932;28;20197;-88
2022/03/31 09:24:28;;;;;;;18.77;4.70;;;;;;;18.44;44.95;93599.69;5056949;28;20566;-88
2022/03/31 09:26:56;;;;;;;20.25;3.50;;;;;;;18.53;44.00;93613.13;5067897;28;20539;-88
2022/03/31 09:29:26;;;;;;;24.15;4.60;;;;;;;18.60;44.33;93610.91;5071706;28;20206;-87
2022/03/31 09:31:52;;;;;;;21.80;5.28;;;;;;;18.62;43.89;93603.44;5072289;28;20194;-88
2022/03/31 09:34:18;;;;;;;22.70;4.45;;;;;;;18.73;43.17;93606.72;5071074;28;20182;-87
2022/03/31 09:36:48;;;;;;;24.20;6.00;;;;;;;18.96;44.00;93591.66;5052469;28;20210;-88
2022/03/31 09:39:16;;;;;;;19.98;3.85;;;;;;;18.88;43.99;93581.66;5064942;28;20562;-88
2022/03/31 09:41:44;;;;;;;18.92;4.03;;;;;;;19.36;45.08;93633.66;5052415;28;20171;-88
2022/03/31 09:44:19;;;;;;;26.20;4.35;;;;;;;19.05;42.47;93571.22;5070320;28;20205;-88
2022/03/31 09:46:46;;;;;;;29.48;4.63;;;;;;;19.11;42.25;93573.50;5051957;28;20174;-88
2022/03/31 09:49:20;;;;;;;30.23;4.25;;;;;;;19.23;42.80;93589.84;5053251;28;20181;-88
2022/03/31 09:51:55;;;;;;;25.90;4.43;;;;;;;19.40;42.42;93591.91;5071015;28;20701;-88
2022/03/31 09:54:26;;;;;;;18.35;4.18;;;;;;;19.33;43.13;93604.88;5053795;28;20178;-88
2022/03/31 09:56:56;;;;;;;20.05;4.28;;;;;;;19.41;42.74;93624.72;5072048;28;20190;-88
2022/03/31 09:59:29;;;;;;;24.02;4.63;;;;;;;19.31;43.46;93587.56;5071520;28;20273;-88
2022/03/31 10:01:55;;;;;;;17.63;4.15;;;;;;;19.56;43.54;93627.94;5071496;28;20270;-88
2022/03/31 10:04:21;;;;;;;21.38;3.42;;;;;;;;;;5053613;28;20264;-89
2022/03/31 10:06:46;;;;;;;24.30;3.95;;;;;;;19.57;41.54;93570.78;5071360;28;20170;-88
2022/03/31 10:09:12;;;;;;;18.48;4.13;;;;;;;19.83;42.11;93584.41;5052907;28;20182;-89
2022/03/31 10:11:41;;;;;;;36.92;6.80;;;;;;;20.16;43.28;93646.47;5071371;28;20199;-89
2022/03/31 10:14:25;;;;;;;34.17;4.78;;;;;;;20.37;42.23;93605.97;5053938;28;20649;-89
2022/03/31 10:17:05;;;;;;;21.23;4.63;;;;;;;20.28;41.25;93613.91;5053838;28;20183;-89
2022/03/31 10:19:31;;;;;;;26.58;6.35;;;;;;;19.98;42.20;93618.78;5071158;28;20189;-89
2022/03/31 10:24:41;;;;;;;30.20;4.68;;;;;;;19.76;42.04;93592.03;5070905;28;20269;-89
2022/03/31 10:25:07;;;;;;;24.02;4.05;;;;;;;19.63;43.15;93550.13;5071215;28;20726;-88
2022/03/31 10:27:40;;;;;;;19.77;3.60;;;;;;;20.05;42.37;93598.91;5052649;28;20702;-88
2022/03/31 10:30:20;;;;;;;28.98;4.35;;;;;;;20.10;42.71;93588.91;5070764;28;20229;-88
2022/03/31 10:32:57;;;;;;;26.00;6.20;;;;;;;19.89;42.80;93539.69;5052980;28;20298;-89
2022/03/31 10:35:26;;;;;;;25.20;4.90;;;;;;;20.28;42.66;93571.13;5071184;28;20653;-89
2022/03/31 10:37:53;;;;;;;20.13;4.70;;;;;;;20.37;42.12;93582.72;5054035;28;20286;-89
2022/03/31 10:40:42;;;;;;;25.40;4.65;;;;;;;20.46;43.08;93588.13;5055137;28;20178;-89
2022/03/31 10:43:30;;;;;;;30.42;5.53;;;;;;;20.30;43.43;93528.84;5051844;28;20186;-89
2022/03/31 10:45:58;;;;;;;35.22;4.95;;;;;;;20.28;42.32;93515.00;5052112;28;20567;-88
2022/03/31 10:48:29;;;;;;;30.30;6.72;;;;;;;19.96;42.39;93491.97;5071754;28;20260;-89
2022/03/31 10:51:06;;;;;;;33.03;7.43;;;;;;;20.08;42.60;93524.28;5072890;28;20268;-88
2022/03/31 10:53:34;;;;;;;27.60;5.90;;;;;;;19.67;42.85;93505.69;5052994;28;20189;-88
2022/03/31 10:56:02;;;;;;;26.17;7.00;;;;;;;19.45;43.38;93508.28;5072633;28;20309;-89
2022/03/31 10:58:29;;;;;;;23.42;4.30;;;;;;;19.67;42.37;93572.47;5054416;28;20230;-89
2022/03/31 11:01:02;;;;;;;29.77;6.57;;;;;;;19.60;43.25;93558.72;5070720;28;20186;-88
2022/03/31 11:03:27;;;;;;;25.50;5.10;;;;;;;19.39;43.48;93522.81;5070596;28;20239;-88
2022/03/31 11:05:56;;;;;;;27.30;5.75;;;;;;;19.69;44.08;93556.94;5052991;28;20708;-89
2022/03/31 11:08:22;;;;;;;22.80;4.47;;;;;;;19.75;42.43;93566.41;5052548;28;20220;-88
2022/03/31 11:10:52;;;;;;;30.15;5.10;;;;;;;19.91;43.55;93572.22;5072295;28;20274;-89
2022/03/31 11:13:20;;;;;;;24.60;5.18;;;;;;;19.48;42.16;93494.34;5054550;28;20622;-89
2022/03/31 11:15:55;;;;;;;31.50;5.38;;;;;;;20.03;42.66;93543.09;5054783;28;20193;-86
2022/03/31 11:18:21;;;;;;;21.23;5.00;;;;;;;19.83;42.31;93522.97;5072190;28;20205;-85
2022/03/31 11:21:01;;;;;;;26.42;4.85;;;;;;;19.88;42.10;93503.38;5071551;28;20181;-85
2022/03/31 11:23:33;;;;;;;30.30;4.22;;;;;;;19.95;42.09;93528.59;5071818;28;20166;-89
2022/03/31 11:25:59;;;;;;;17.40;4.15;;;;;;;20.26;41.99;93570.63;5070783;28;20267;-84
2022/03/31 11:28:29;;;;;;;28.77;5.00;;;;;;;20.12;41.50;93568.03;5071409;28;20209;-84
2022/03/31 11:30:55;;;;;;;27.92;4.60;;;;;;;19.90;41.65;93552.72;5053249;28;20194;-84
2022/03/31 11:33:21;;;;;;;35.55;4.75;;;;;;;19.89;42.84;93545.78;5070016;28;20182;-85
2022/03/31 11:35:53;;;;;;;27.75;4.93;;;;;;;19.93;44.51;93559.34;5070354;28;20237;-84
2022/03/31 11:38:19;;;;;;;23.90;4.07;;;;;;;19.72;45.24;93505.59;5071425;28;20563;-86